createdAt,value
2023-05-18T00:02:23.543Z,99.90
2023-05-18T00:04:51.678Z,99.90
2023-05-18T00:07:19.610Z,99.90
2023-05-18T00:09:47.566Z,99.90
2023-05-18T00:12:15.504Z,99.90
2023-05-18T00:14:43.410Z,99.90
2023-05-18T00:17:11.323Z,99.90
2023-05-18T00:19:40.676Z,99.90
2023-05-18T00:22:08.800Z,99.90
2023-05-18T00:24:37.221Z,99.90
2023-05-18T00:27:05.618Z,99.90
2023-05-18T00:29:33.868Z,99.90
2023-05-18T00:32:01.901Z,99.90
2023-05-18T00:34:29.879Z,99.90
2023-05-18T00:36:59.581Z,99.90
2023-05-18T00:39:27.496Z,99.90
2023-05-18T00:41:55.483Z,99.90
2023-05-18T00:44:25.516Z,99.90
2023-05-18T00:46:53.788Z,99.90
2023-05-18T00:49:21.939Z,99.90
2023-05-18T00:51:50.811Z,99.90
2023-05-18T00:54:20.553Z,99.90
2023-05-18T00:56:49.264Z,99.90
2023-05-18T00:59:18.587Z,99.90
2023-05-18T01:01:46.954Z,99.90
2023-05-18T01:04:15.184Z,99.90
2023-05-18T01:06:43.694Z,99.90
2023-05-18T01:09:13.643Z,99.90
2023-05-18T01:11:56.329Z,99.90
2023-05-18T01:14:31.965Z,99.90
2023-05-18T01:17:05.024Z,99.90
2023-05-18T01:20:15.913Z,99.90
2023-05-18T01:23:01.630Z,99.90
2023-05-18T01:25:36.604Z,99.90
2023-05-18T01:28:13.639Z,99.90
2023-05-18T01:30:43.008Z,99.90
2023-05-18T01:33:12.794Z,99.90
2023-05-18T01:35:47.942Z,99.90
2023-05-18T01:38:17.752Z,99.90
2023-05-18T01:40:53.794Z,99.90
2023-05-18T01:43:29.427Z,99.90
2023-05-18T01:46:02.730Z,99.90
2023-05-18T01:48:31.700Z,99.90
2023-05-18T01:51:00.615Z,99.90
2023-05-18T01:53:35.536Z,99.90
2023-05-18T01:56:05.986Z,99.90
2023-05-18T01:58:36.881Z,99.90
2023-05-18T02:01:05.978Z,99.90
2023-05-18T02:03:34.180Z,99.90
2023-05-18T02:06:02.206Z,99.90
2023-05-18T02:08:30.241Z,99.90
2023-05-18T02:10:58.869Z,99.90
2023-05-18T02:13:26.776Z,99.90
2023-05-18T02:15:56.109Z,99.90
2023-05-18T02:18:24.031Z,99.90
2023-05-18T02:20:51.965Z,99.90
2023-05-18T02:23:19.925Z,99.90
2023-05-18T02:25:48.226Z,99.90
2023-05-18T02:28:16.277Z,99.90
2023-05-18T02:30:46.391Z,99.90
2023-05-18T02:33:19.732Z,99.90
2023-05-18T02:35:47.762Z,99.90
2023-05-18T02:38:15.726Z,99.90
2023-05-18T02:40:43.752Z,99.90
2023-05-18T02:43:11.703Z,99.90
2023-05-18T02:45:39.999Z,99.90
2023-05-18T02:48:08.005Z,99.90
2023-05-18T02:50:37.280Z,99.90
2023-05-18T02:53:06.020Z,99.90
2023-05-18T02:55:34.024Z,99.90
2023-05-18T02:58:09.609Z,99.90
2023-05-18T03:01:04.455Z,99.90
2023-05-18T03:03:39.195Z,99.90
2023-05-18T03:06:09.239Z,99.90
2023-05-18T03:08:37.751Z,99.90
2023-05-18T03:11:05.972Z,99.90
2023-05-18T03:13:34.062Z,99.90
2023-05-18T03:16:02.066Z,99.90
2023-05-18T03:18:30.040Z,99.90
2023-05-18T03:21:02.124Z,99.90
2023-05-18T03:23:32.359Z,99.90
2023-05-18T03:26:02.768Z,99.90
2023-05-18T03:28:32.178Z,99.90
2023-05-18T03:31:01.042Z,99.90
2023-05-18T03:33:29.079Z,99.90
2023-05-18T03:35:57.237Z,99.90
2023-05-18T03:38:25.359Z,99.90
2023-05-18T03:41:01.192Z,99.90
2023-05-18T03:43:32.399Z,99.90
2023-05-18T03:46:01.711Z,99.90
2023-05-18T03:48:30.504Z,99.90
2023-05-18T03:50:58.632Z,99.90
2023-05-18T03:53:29.828Z,99.90
2023-05-18T03:55:58.305Z,99.90
2023-05-18T03:58:29.217Z,99.90
2023-05-18T04:00:57.318Z,99.90
2023-05-18T04:03:26.980Z,99.90
2023-05-18T04:05:55.797Z,99.90
2023-05-18T04:08:25.424Z,99.90
2023-05-18T04:10:53.795Z,99.90
2023-05-18T04:13:21.777Z,99.90
2023-05-18T04:15:51.734Z,99.90
2023-05-18T04:18:19.717Z,99.90
2023-05-18T04:20:47.592Z,99.90
2023-05-18T04:23:15.835Z,99.90
2023-05-18T04:25:43.943Z,99.90
2023-05-18T04:28:11.810Z,99.90
2023-05-18T04:30:41.544Z,99.90
2023-05-18T04:33:10.872Z,99.90
2023-05-18T04:35:39.001Z,99.90
2023-05-18T04:38:07.206Z,99.90
2023-05-18T04:40:38.121Z,99.90
2023-05-18T04:43:08.399Z,99.90
2023-05-18T04:45:36.699Z,99.90
2023-05-18T04:48:04.835Z,99.90
2023-05-18T04:50:35.834Z,99.90
2023-05-18T04:53:07.875Z,99.90
2023-05-18T04:55:36.172Z,99.90
2023-05-18T04:58:07.153Z,99.90
2023-05-18T05:00:35.108Z,99.90
2023-05-18T05:03:03.078Z,96.20
2023-05-18T05:05:31.890Z,94.30
2023-05-18T05:08:01.261Z,93.10
2023-05-18T05:10:29.275Z,93.60
2023-05-18T05:12:57.339Z,91.90
2023-05-18T05:15:25.809Z,91.20
2023-05-18T05:17:55.198Z,87.90
2023-05-18T05:20:23.520Z,85.40
2023-05-18T05:22:51.698Z,83.20
2023-05-18T05:25:26.034Z,84.10
2023-05-18T05:27:54.230Z,87.10
2023-05-18T05:30:22.824Z,82.60
2023-05-18T05:32:50.790Z,80.60
2023-05-18T05:35:18.845Z,78.70
2023-05-18T05:37:47.975Z,77.20
2023-05-18T05:40:17.317Z,77.00
2023-05-18T05:42:48.498Z,75.80
2023-05-18T05:45:16.410Z,74.50
2023-05-18T05:47:50.768Z,72.00
2023-05-18T05:50:20.727Z,66.70
2023-05-18T05:52:50.846Z,70.80
2023-05-18T05:55:20.053Z,70.80
2023-05-18T05:57:49.300Z,68.60
2023-05-18T06:00:18.112Z,68.60
2023-05-18T06:02:50.201Z,71.40
2023-05-18T06:05:25.956Z,73.00
2023-05-18T06:07:55.417Z,74.60
2023-05-18T06:10:23.528Z,77.70
2023-05-18T06:12:52.831Z,78.40
2023-05-18T06:15:23.520Z,79.90
2023-05-18T06:17:52.117Z,80.20
2023-05-18T06:20:20.491Z,79.30
2023-05-18T06:22:48.574Z,79.10
2023-05-18T06:25:23.149Z,80.60
2023-05-18T06:28:12.970Z,80.30
2023-05-18T06:30:49.947Z,81.90
2023-05-18T06:33:23.804Z,82.50
2023-05-18T06:35:52.235Z,81.90
2023-05-18T06:38:20.445Z,83.30
2023-05-18T06:40:48.522Z,78.00
2023-05-18T06:43:17.777Z,73.60
2023-05-18T06:45:53.922Z,69.80
2023-05-18T06:48:36.106Z,66.10
2023-05-18T06:51:04.740Z,65.40
2023-05-18T06:53:32.847Z,62.00
2023-05-18T06:56:01.921Z,58.60
2023-05-18T06:58:32.329Z,59.00
2023-05-18T07:01:04.040Z,60.60
2023-05-18T07:03:32.652Z,59.50
2023-05-18T07:06:00.569Z,57.60
2023-05-18T07:08:28.570Z,57.80
2023-05-18T07:10:58.026Z,58.30
2023-05-18T07:13:26.620Z,60.00
2023-05-18T07:15:56.035Z,59.10
2023-05-18T07:18:24.124Z,57.10
2023-05-18T07:20:52.114Z,57.10
2023-05-18T07:23:20.164Z,57.50
2023-05-18T07:25:49.127Z,55.80
2023-05-18T07:28:17.145Z,56.50
2023-05-18T07:30:45.048Z,56.90
2023-05-18T07:33:14.344Z,55.90
2023-05-18T07:35:42.652Z,55.70
2023-05-18T07:38:10.827Z,54.80
2023-05-18T07:40:38.900Z,57.80
2023-05-18T07:43:06.974Z,59.80
2023-05-18T07:45:35.308Z,61.00
2023-05-18T07:48:03.603Z,61.50
2023-05-18T07:50:34.760Z,61.30
2023-05-18T07:53:02.750Z,64.00
2023-05-18T07:55:31.080Z,67.80
2023-05-18T07:58:01.092Z,69.10
2023-05-18T08:00:29.226Z,67.80
2023-05-18T08:02:57.379Z,61.70
2023-05-18T08:05:25.615Z,63.00
2023-05-18T08:07:55.210Z,62.60
2023-05-18T08:10:23.297Z,62.90
2023-05-18T08:12:51.631Z,62.90
2023-05-18T08:15:19.572Z,66.20
2023-05-18T08:17:47.629Z,67.20
2023-05-18T08:20:17.467Z,68.00
2023-05-18T08:22:45.404Z,71.10
2023-05-18T08:25:15.106Z,72.90
2023-05-18T08:27:43.001Z,73.30
2023-05-18T08:30:12.088Z,68.00
2023-05-18T08:32:40.040Z,63.20
2023-05-18T08:35:10.144Z,62.70
2023-05-18T08:37:38.251Z,63.10
2023-05-18T08:40:08.070Z,63.10
2023-05-18T08:42:49.207Z,63.80
2023-05-18T08:45:23.275Z,66.20
2023-05-18T08:47:52.020Z,68.00
2023-05-18T08:50:24.410Z,72.40
2023-05-18T08:52:56.683Z,73.00
2023-05-18T08:55:25.340Z,67.60
2023-05-18T08:57:59.971Z,61.10
2023-05-18T09:00:28.873Z,57.80
2023-05-18T09:02:57.627Z,62.50
2023-05-18T09:05:26.105Z,62.50
2023-05-18T09:07:56.879Z,60.40
2023-05-18T09:10:26.140Z,60.80
2023-05-18T09:12:57.159Z,62.10
2023-05-18T09:15:26.516Z,65.00
2023-05-18T09:17:54.510Z,65.00
2023-05-18T09:20:22.915Z,66.50
2023-05-18T09:22:51.448Z,64.70
2023-05-18T09:25:19.718Z,63.20
2023-05-18T09:27:49.392Z,62.20
2023-05-18T09:30:19.056Z,60.70
2023-05-18T09:32:48.246Z,59.00
2023-05-18T09:35:16.832Z,61.40
2023-05-18T09:37:44.767Z,62.60
2023-05-18T09:40:13.500Z,62.70
2023-05-18T09:42:44.217Z,67.30
2023-05-18T09:45:19.887Z,68.40
2023-05-18T09:47:50.367Z,69.80
2023-05-18T09:50:20.520Z,70.90
2023-05-18T09:52:49.328Z,71.50
2023-05-18T09:55:18.015Z,71.80
2023-05-18T09:57:47.014Z,72.10
2023-05-18T10:00:17.128Z,72.90
2023-05-18T10:02:49.053Z,74.30
2023-05-18T10:05:21.380Z,75.50
2023-05-18T10:07:49.722Z,75.40
2023-05-18T10:10:20.148Z,75.30
2023-05-18T10:12:48.588Z,75.00
2023-05-18T10:15:17.297Z,74.70
2023-05-18T10:17:49.272Z,74.30
2023-05-18T10:20:20.044Z,73.00
2023-05-18T10:22:49.782Z,73.80
2023-05-18T10:25:21.007Z,72.80
2023-05-18T10:27:56.028Z,72.70
2023-05-18T10:30:24.424Z,70.70
2023-05-18T10:32:56.178Z,71.10
2023-05-18T10:35:28.594Z,70.90
2023-05-18T10:37:58.662Z,70.90
2023-05-18T10:40:29.610Z,70.60
2023-05-18T10:42:59.423Z,71.40
2023-05-18T10:45:28.275Z,72.00
2023-05-18T10:48:00.516Z,72.90
2023-05-18T10:50:29.824Z,72.20
2023-05-18T10:53:00.357Z,72.70
2023-05-18T10:55:29.171Z,74.10
2023-05-18T10:58:04.590Z,72.50
2023-05-18T11:00:37.021Z,70.50
2023-05-18T11:03:10.784Z,72.10
2023-05-18T11:05:39.882Z,73.00
2023-05-18T11:08:08.719Z,72.50
2023-05-18T11:10:42.487Z,71.60
2023-05-18T11:13:12.174Z,71.00
2023-05-18T11:16:09.097Z,71.40
2023-05-18T11:18:41.606Z,70.70
2023-05-18T11:21:29.936Z,70.00
2023-05-18T11:24:23.424Z,69.70
2023-05-18T11:26:53.485Z,67.90
2023-05-18T11:29:24.318Z,69.10
2023-05-18T11:31:54.984Z,69.80
2023-05-18T11:34:49.520Z,69.30
2023-05-18T11:37:18.986Z,69.10
2023-05-18T11:40:00.131Z,71.50
2023-05-18T11:42:34.246Z,71.30
2023-05-18T11:45:08.662Z,73.10
2023-05-18T11:47:38.154Z,72.30
2023-05-18T11:50:11.879Z,72.20
2023-05-18T11:52:48.237Z,69.60
2023-05-18T11:55:19.215Z,71.30
2023-05-18T11:57:52.552Z,73.60
2023-05-18T12:00:21.989Z,72.60
2023-05-18T12:03:40.379Z,74.50
2023-05-18T12:06:10.064Z,73.70
2023-05-18T12:08:43.907Z,72.60
2023-05-18T12:11:13.643Z,73.00
2023-05-18T12:13:42.722Z,74.10
2023-05-18T12:16:12.267Z,74.50
2023-05-18T12:18:40.373Z,71.00
2023-05-18T12:21:09.946Z,71.10
2023-05-18T12:23:38.329Z,71.80
2023-05-18T12:26:06.460Z,73.40
2023-05-18T12:28:34.718Z,72.70
2023-05-18T12:31:07.246Z,73.70
2023-05-18T12:33:35.365Z,74.40
2023-05-18T12:36:03.225Z,72.50
2023-05-18T12:38:32.855Z,74.10
2023-05-18T12:41:00.794Z,74.20
2023-05-18T12:43:33.938Z,74.30
2023-05-18T12:46:03.037Z,73.10
2023-05-18T12:48:37.512Z,72.10
2023-05-18T12:51:06.954Z,74.10
2023-05-18T12:53:43.667Z,74.30
2023-05-18T12:56:13.065Z,73.30
2023-05-18T12:58:41.632Z,72.70
2023-05-18T13:01:10.526Z,70.90
2023-05-18T13:03:41.114Z,72.30
2023-05-18T13:06:10.636Z,72.50
2023-05-18T13:08:39.014Z,72.40
2023-05-18T13:11:14.727Z,73.10
2023-05-18T13:14:04.622Z,73.90
2023-05-18T13:16:34.319Z,72.70
2023-05-18T13:19:03.730Z,73.70
2023-05-18T13:21:32.223Z,73.70
2023-05-18T13:24:00.934Z,73.80
2023-05-18T13:26:31.146Z,73.40
2023-05-18T13:29:00.258Z,72.50
2023-05-18T13:31:29.569Z,74.10
2023-05-18T13:33:57.852Z,74.50
2023-05-18T13:36:26.339Z,74.40
2023-05-18T13:38:54.310Z,73.00
2023-05-18T13:41:22.210Z,72.60
2023-05-18T13:43:51.725Z,72.40
2023-05-18T13:46:20.141Z,71.60
2023-05-18T13:48:48.108Z,73.10
2023-05-18T13:51:16.290Z,75.90
2023-05-18T13:53:44.263Z,75.60
2023-05-18T13:56:12.187Z,75.70
2023-05-18T13:58:40.182Z,76.30
2023-05-18T14:01:13.377Z,75.10
2023-05-18T14:03:41.772Z,74.30
2023-05-18T14:06:10.187Z,74.80
2023-05-18T14:08:38.146Z,75.00
2023-05-18T14:11:06.291Z,74.80
2023-05-18T14:13:34.475Z,75.40
2023-05-18T14:16:02.360Z,74.00
2023-05-18T14:18:31.599Z,73.40
2023-05-18T14:21:02.336Z,72.50
2023-05-18T14:23:30.886Z,72.20
2023-05-18T14:25:58.770Z,71.20
2023-05-18T14:28:27.030Z,71.70
2023-05-18T14:30:54.949Z,72.90
2023-05-18T14:33:22.955Z,72.90
2023-05-18T14:35:52.286Z,74.30
2023-05-18T14:38:20.277Z,73.40
2023-05-18T14:40:48.176Z,72.60
2023-05-18T14:43:16.059Z,72.40
2023-05-18T14:45:48.368Z,72.30
2023-05-18T14:48:21.400Z,71.00
2023-05-18T14:50:49.274Z,72.50
2023-05-18T14:53:18.533Z,71.50
2023-05-18T14:55:46.414Z,70.50
2023-05-18T14:58:14.978Z,71.30
2023-05-18T15:00:43.153Z,72.20
2023-05-18T15:03:11.370Z,71.50
2023-05-18T15:05:39.399Z,72.60
2023-05-18T15:08:07.345Z,72.50
2023-05-18T15:10:36.553Z,73.20
2023-05-18T15:13:04.813Z,71.30
2023-05-18T15:15:33.207Z,72.50
2023-05-18T15:18:01.209Z,73.50
2023-05-18T15:20:29.504Z,73.90
2023-05-18T15:22:57.662Z,75.10
2023-05-18T15:25:25.819Z,74.30
2023-05-18T15:27:55.053Z,75.90
2023-05-18T15:30:23.090Z,75.10
2023-05-18T15:32:51.014Z,76.20
2023-05-18T15:35:18.956Z,75.80
2023-05-18T15:37:46.875Z,74.90
2023-05-18T15:40:14.773Z,74.20
2023-05-18T15:42:42.601Z,73.70
2023-05-18T15:45:12.945Z,73.60
2023-05-18T15:47:42.268Z,74.10
2023-05-18T15:50:10.737Z,74.80
2023-05-18T15:52:38.623Z,76.40
2023-05-18T15:55:07.617Z,77.20
2023-05-18T15:57:35.644Z,75.90
2023-05-18T16:00:03.711Z,76.30
2023-05-18T16:02:41.076Z,76.00
2023-05-18T16:05:09.588Z,75.30
2023-05-18T16:07:41.026Z,75.30
2023-05-18T16:10:09.995Z,75.70
2023-05-18T16:12:38.146Z,76.70
2023-05-18T16:15:06.916Z,76.30
2023-05-18T16:17:34.793Z,76.60
2023-05-18T16:20:04.380Z,77.30
2023-05-18T16:22:32.362Z,77.00
2023-05-18T16:25:00.247Z,78.00
2023-05-18T16:27:28.178Z,79.10
2023-05-18T16:29:56.046Z,80.10
2023-05-18T16:32:24.745Z,79.50
2023-05-18T16:34:53.130Z,80.10
2023-05-18T16:37:22.348Z,79.80
2023-05-18T16:39:50.341Z,79.70
2023-05-18T16:42:20.696Z,80.30
2023-05-18T16:44:48.635Z,80.20
2023-05-18T16:47:16.516Z,80.60
2023-05-18T16:49:45.498Z,80.00
2023-05-18T16:52:15.772Z,80.30
2023-05-18T16:54:45.615Z,80.30
2023-05-18T16:57:13.558Z,80.80
2023-05-18T16:59:41.726Z,81.40
2023-05-18T17:02:13.400Z,81.90
2023-05-18T17:04:42.792Z,81.40
2023-05-18T17:07:11.582Z,80.00
2023-05-18T17:09:42.677Z,80.90
2023-05-18T17:12:12.821Z,81.20
2023-05-18T17:14:40.804Z,81.70
2023-05-18T17:17:09.161Z,82.10
2023-05-18T17:19:39.069Z,81.40
2023-05-18T17:22:09.511Z,81.50
2023-05-18T17:24:37.780Z,81.70
2023-05-18T17:27:06.186Z,82.80
2023-05-18T17:29:35.463Z,82.90
2023-05-18T17:32:03.550Z,84.00
2023-05-18T17:34:31.557Z,84.40
2023-05-18T17:36:59.938Z,84.60
2023-05-18T17:39:28.082Z,85.00
2023-05-18T17:41:56.027Z,85.20
2023-05-18T17:44:23.990Z,85.70
2023-05-18T17:46:53.545Z,86.40
2023-05-18T17:49:21.754Z,86.60
2023-05-18T17:51:49.803Z,87.60
2023-05-18T17:54:18.056Z,87.80
2023-05-18T17:56:46.668Z,88.70
2023-05-18T17:59:14.594Z,88.50
2023-05-18T18:01:43.124Z,89.30
2023-05-18T18:04:12.655Z,90.00
2023-05-18T18:06:42.769Z,89.50
2023-05-18T18:09:10.782Z,89.60
2023-05-18T18:11:38.913Z,90.00
2023-05-18T18:14:07.123Z,90.40
2023-05-18T18:16:35.697Z,90.70
2023-05-18T18:19:04.057Z,91.20
2023-05-18T18:21:33.555Z,91.70
2023-05-18T18:24:02.727Z,91.80
2023-05-18T18:26:30.764Z,91.90
2023-05-18T18:28:58.661Z,92.40
2023-05-18T18:31:26.644Z,92.80
2023-05-18T18:33:54.583Z,93.10
2023-05-18T18:36:23.771Z,93.60
2023-05-18T18:38:55.168Z,94.10
2023-05-18T18:41:23.051Z,94.70
2023-05-18T18:43:53.927Z,95.30
2023-05-18T18:46:22.015Z,96.20
2023-05-18T18:48:50.206Z,97.00
2023-05-18T18:51:18.357Z,97.20
2023-05-18T18:53:46.554Z,98.20
2023-05-18T18:56:15.965Z,98.90
2023-05-18T18:58:43.884Z,98.80
2023-05-18T19:01:12.159Z,99.80
2023-05-18T19:03:40.153Z,99.90
2023-05-18T19:06:08.099Z,99.90
2023-05-18T19:08:36.129Z,99.90
2023-05-18T19:11:04.033Z,99.90
2023-05-18T19:13:33.352Z,99.90
2023-05-18T19:16:01.563Z,99.90
2023-05-18T19:18:29.479Z,99.90
2023-05-18T19:20:59.024Z,99.90
2023-05-18T19:23:27.014Z,99.90
2023-05-18T19:25:55.473Z,99.90
2023-05-18T19:28:23.432Z,99.90
2023-05-18T19:30:53.567Z,99.90
2023-05-18T19:33:21.501Z,99.90
2023-05-18T19:35:51.625Z,99.90
2023-05-18T19:38:19.648Z,99.90
2023-05-18T19:40:47.950Z,99.90
2023-05-18T19:43:17.006Z,99.90
2023-05-18T19:45:44.939Z,99.90
2023-05-18T19:48:14.821Z,99.90
2023-05-18T19:50:42.971Z,99.90
2023-05-18T19:53:10.842Z,99.90
2023-05-18T19:55:38.737Z,99.90
2023-05-18T19:58:06.727Z,99.90
2023-05-18T20:00:35.218Z,99.90
2023-05-18T20:03:03.891Z,99.90
2023-05-18T20:05:33.483Z,99.90
2023-05-18T20:08:02.969Z,99.90
2023-05-18T20:10:31.210Z,99.90
2023-05-18T20:12:59.537Z,99.90
2023-05-18T20:15:28.070Z,99.90
2023-05-18T20:17:56.048Z,99.90
2023-05-18T20:20:24.041Z,99.90
2023-05-18T20:22:53.396Z,99.90
2023-05-18T20:25:21.499Z,99.90
2023-05-18T20:27:49.691Z,99.90
2023-05-18T20:30:17.596Z,99.90
2023-05-18T20:32:46.018Z,99.90
2023-05-18T20:35:15.864Z,99.90
2023-05-18T20:37:44.309Z,99.90
2023-05-18T20:40:14.137Z,99.90
2023-05-18T20:42:42.602Z,99.90
2023-05-18T20:45:12.309Z,99.90
2023-05-18T20:47:41.748Z,99.90
2023-05-18T20:50:10.539Z,99.90
2023-05-18T20:52:38.593Z,99.90
2023-05-18T20:55:07.357Z,99.90
2023-05-18T20:57:40.035Z,99.90
2023-05-18T21:00:09.400Z,99.90
2023-05-18T21:02:37.944Z,99.90
2023-05-18T21:05:06.506Z,99.90
2023-05-18T21:07:38.088Z,99.90
2023-05-18T21:10:07.064Z,99.90
2023-05-18T21:12:36.418Z,99.90
2023-05-18T21:15:05.089Z,99.90
2023-05-18T21:17:33.213Z,99.90
2023-05-18T21:20:01.242Z,99.90
2023-05-18T21:22:29.144Z,99.90
2023-05-18T21:24:57.052Z,99.90
2023-05-18T21:27:24.922Z,99.90
2023-05-18T21:29:54.122Z,99.90
2023-05-18T21:32:22.821Z,99.90
2023-05-18T21:34:50.962Z,99.90
2023-05-18T21:37:18.849Z,99.90
2023-05-18T21:39:46.950Z,99.90
2023-05-18T21:42:14.842Z,99.90
2023-05-18T21:44:42.754Z,99.90
2023-05-18T21:47:12.015Z,99.90
2023-05-18T21:49:39.935Z,99.90
2023-05-18T21:52:07.869Z,99.90
2023-05-18T21:54:35.949Z,99.90
2023-05-18T21:57:04.109Z,99.90
2023-05-18T21:59:32.100Z,99.90
2023-05-18T22:02:00.155Z,99.90
2023-05-18T22:04:29.578Z,99.90
2023-05-18T22:06:57.587Z,99.90
2023-05-18T22:09:25.541Z,99.90
2023-05-18T22:11:53.497Z,99.90
2023-05-18T22:14:21.375Z,99.90
2023-05-18T22:16:49.423Z,99.90
2023-05-18T22:19:17.537Z,99.90
2023-05-18T22:21:46.846Z,99.90
2023-05-18T22:24:14.796Z,99.90
2023-05-18T22:26:43.221Z,99.90
2023-05-18T22:29:11.440Z,99.90
2023-05-18T22:31:39.477Z,99.90
2023-05-18T22:34:07.385Z,99.90
2023-05-18T22:36:36.240Z,99.90
2023-05-18T22:39:05.748Z,99.90
2023-05-18T22:41:33.655Z,99.90
2023-05-18T22:44:01.692Z,99.90
2023-05-18T22:46:29.738Z,99.90
2023-05-18T22:48:57.597Z,99.90
2023-05-18T22:51:26.275Z,99.90
2023-05-18T22:53:54.192Z,99.90
2023-05-18T22:56:23.538Z,99.90
2023-05-18T22:58:51.640Z,99.90
2023-05-18T23:01:19.544Z,99.90
2023-05-18T23:03:47.425Z,99.90
2023-05-18T23:06:15.307Z,99.90
2023-05-18T23:08:44.049Z,99.90
2023-05-18T23:11:11.925Z,99.90
2023-05-18T23:13:41.190Z,99.90
2023-05-18T23:16:10.466Z,99.90
2023-05-18T23:18:38.770Z,99.90
2023-05-18T23:21:09.012Z,99.90
2023-05-18T23:23:36.894Z,99.90
2023-05-18T23:26:04.837Z,99.90
2023-05-18T23:28:32.738Z,99.90
2023-05-18T23:31:02.280Z,99.90
2023-05-18T23:33:31.085Z,99.90
2023-05-18T23:36:02.709Z,99.90
2023-05-18T23:38:34.770Z,99.90
2023-05-18T23:41:03.372Z,99.90
2023-05-18T23:43:31.779Z,99.90
2023-05-18T23:46:01.673Z,99.90
2023-05-18T23:48:31.006Z,99.90
2023-05-18T23:51:02.011Z,99.90
2023-05-18T23:53:31.345Z,99.90
2023-05-18T23:56:00.221Z,99.90
2023-05-18T23:58:30.679Z,99.90
